Time;durP1;ratioP1;P1;durP2;ratioP2;P2;SDS_P1;SDS_P2;PMS_P1;PMS_P2;Temp;Humidity;BMP_temperature;BMP_pressure;BME280_temperature;BME280_humidity;BME280_pressure;Samples;Min_cycle;Max_cycle;Signal;HPM_P1;HPM_P2
2023/04/14 00:00:05;;;;;;;9.40;6.77;;;;;;;;;;5031758;28;20236;-52
2023/04/14 00:02:34;;;;;;;8.40;6.70;;;;;;;;;;5026640;28;20824;-52
2023/04/14 00:05:03;;;;;;;7.70;6.10;;;;;;;;;;5019035;28;20706;-51
2023/04/14 00:07:29;;;;;;;7.30;6.50;;;;;;;;;;5027252;28;20235;-51
2023/04/14 00:09:55;;;;;;;8.80;6.87;;;;;;;;;;5018078;28;20266;-53
2023/04/14 00:12:22;;;;;;;8.03;7.07;;;;;;;;;;5016346;28;20752;-52
2023/04/14 00:14:49;;;;;;;9.73;7.50;;;;;;;;;;5011972;28;20233;-51
2023/04/14 00:17:16;;;;;;;9.93;7.43;;;;;;;;;;5007428;28;20352;-52
2023/04/14 00:19:42;;;;;;;8.17;6.50;;;;;;;;;;5004783;28;20225;-50
2023/04/14 00:22:10;;;;;;;8.83;6.97;;;;;;;;;;5013582;28;20255;-51
2023/04/14 00:24:42;;;;;;;11.30;7.43;;;;;;;;;;5025556;28;20979;-52
2023/04/14 00:27:08;;;;;;;7.77;6.47;;;;;;;;;;5038494;28;20248;-52
2023/04/14 00:29:37;;;;;;;8.27;6.90;;;;;;;;;;5036663;28;20305;-51
2023/04/14 00:32:04;;;;;;;10.70;6.53;;;;;;;;;;5061058;28;20246;-54
2023/04/14 00:34:30;;;;;;;8.13;6.63;;;;;;;;;;5050069;28;20232;-52
2023/04/14 00:36:57;;;;;;;11.60;6.97;;;;;;;;;;5042966;28;20239;-52
2023/04/14 00:39:25;;;;;;;9.13;6.50;;;;;;;;;;5041965;28;20627;-51
2023/04/14 00:41:52;;;;;;;7.97;6.50;;;;;;;;;;5039760;28;20300;-52
2023/04/14 00:44:18;;;;;;;10.50;6.10;;;;;;;;;;5039971;28;20231;-52
2023/04/14 00:46:45;;;;;;;7.80;6.70;;;;;;;;;;5046757;28;20252;-53
2023/04/14 00:49:13;;;;;;;8.93;6.43;;;;;;;;;;5057827;28;20247;-50
2023/04/14 00:51:40;;;;;;;6.50;5.33;;;;;;;;;;5047341;28;20319;-51
2023/04/14 00:54:07;;;;;;;6.53;5.80;;;;;;;;;;5055169;28;20703;-51
2023/04/14 00:56:35;;;;;;;5.90;5.30;;;;;;;;;;5050165;28;20227;-51
2023/04/14 00:59:02;;;;;;;6.07;5.13;;;;;;;;;;5050979;28;20660;-51
2023/04/14 01:01:29;;;;;;;6.17;5.40;;;;;;;;;;5056938;28;20238;-51
2023/04/14 01:03:57;;;;;;;5.60;4.47;;;;;;;;;;5056792;28;20293;-53
2023/04/14 01:06:25;;;;;;;6.50;5.13;;;;;;;;;;5049584;28;20263;-51
2023/04/14 01:08:53;;;;;;;6.60;5.10;;;;;;;;;;5051180;28;20232;-52
2023/04/14 01:11:23;;;;;;;6.87;5.77;;;;;;;;;;5043747;28;20236;-51
2023/04/14 01:13:52;;;;;;;7.70;5.73;;;;;;;;;;5059364;28;20231;-52
2023/04/14 01:16:23;;;;;;;8.43;5.77;;;;;;;;;;5059415;28;20284;-50
2023/04/14 01:18:53;;;;;;;9.03;6.10;;;;;;;;;;5054303;28;20683;-51
2023/04/14 01:21:23;;;;;;;6.07;5.37;;;;;;;;;;5046791;28;20700;-51
2023/04/14 01:23:59;;;;;;;9.27;6.20;;;;;;;;;;5053438;28;20235;-51
2023/04/14 01:26:28;;;;;;;5.70;5.10;;;;;;;;;;5055428;28;20230;-51
2023/04/14 01:29:04;;;;;;;9.20;6.77;;;;;;;;;;5051188;28;20697;-50
2023/04/14 01:31:34;;;;;;;6.07;5.37;;;;;;;;;;5046035;28;20236;-51
2023/04/14 01:34:06;;;;;;;6.50;5.90;;;;;;;;;;5050698;28;20288;-51
2023/04/14 01:36:35;;;;;;;8.03;5.67;;;;;;;;;;5060654;28;20231;-51
2023/04/14 01:39:05;;;;;;;6.13;5.23;;;;;;;;;;5060543;28;20821;-51
2023/04/14 01:41:33;;;;;;;7.03;5.57;;;;;;;;;;5056833;28;20634;-52
2023/04/14 01:44:01;;;;;;;8.00;4.70;;;;;;;;;;5060731;28;20359;-52
2023/04/14 01:46:28;;;;;;;8.90;5.00;;;;;;;;;;5059613;28;20231;-52
2023/04/14 01:48:56;;;;;;;4.73;4.30;;;;;;;;;;5050889;28;20242;-51
2023/04/14 01:51:23;;;;;;;6.00;5.07;;;;;;;;;;5049315;28;20235;-51
2023/04/14 01:53:50;;;;;;;5.40;4.80;;;;;;;;;;5051987;28;20254;-51
2023/04/14 01:56:18;;;;;;;5.77;4.30;;;;;;;;;;5054122;28;20685;-50
2023/04/14 01:58:45;;;;;;;7.20;4.37;;;;;;;;;;5060442;28;20282;-52
2023/04/14 02:01:12;;;;;;;6.03;4.57;;;;;;;;;;5050937;28;20242;-51
2023/04/14 02:03:40;;;;;;;6.97;4.47;;;;;;;;;;5051081;28;20228;-51
2023/04/14 02:06:08;;;;;;;6.17;3.93;;;;;;;;;;5052843;28;20268;-51
2023/04/14 02:08:36;;;;;;;6.33;3.70;;;;;;;;;;5044667;28;20311;-51
2023/04/14 02:11:03;;;;;;;9.40;4.60;;;;;;;;;;5047463;28;20726;-52
2023/04/14 02:13:31;;;;;;;5.23;4.73;;;;;;;;;;5057061;28;20303;-50
2023/04/14 02:15:59;;;;;;;4.70;4.20;;;;;;;;;;5047782;28;20247;-52
2023/04/14 02:18:27;;;;;;;6.17;4.37;;;;;;;;;;5039577;28;20837;-50
2023/04/14 02:20:54;;;;;;;5.37;4.07;;;;;;;;;;5036377;28;20247;-50
2023/04/14 02:23:23;;;;;;;3.97;3.50;;;;;;;;;;5039066;28;20738;-50
2023/04/14 02:25:51;;;;;;;5.67;4.20;;;;;;;;;;5044669;28;20311;-53
2023/04/14 02:28:19;;;;;;;6.83;4.03;;;;;;;;;;5048211;28;20238;-51
2023/04/14 02:30:48;;;;;;;5.20;3.70;;;;;;;;;;5043924;28;20228;-51
2023/04/14 02:33:16;;;;;;;4.07;3.67;;;;;;;;;;5046088;28;20753;-51
2023/04/14 02:35:46;;;;;;;4.20;3.00;;;;;;;;;;5035726;28;20232;-51
2023/04/14 02:38:14;;;;;;;4.03;3.43;;;;;;;;;;5034560;28;20261;-51
2023/04/14 02:40:43;;;;;;;5.97;3.43;;;;;;;;;;5035597;28;20224;-51
2023/04/14 02:43:13;;;;;;;3.97;3.57;;;;;;;;;;5032516;28;20286;-51
2023/04/14 02:45:41;;;;;;;4.00;3.60;;;;;;;;;;5039685;28;20309;-51
2023/04/14 02:48:09;;;;;;;4.67;3.20;;;;;;;;;;5035700;28;20285;-52
2023/04/14 02:50:37;;;;;;;6.43;3.53;;;;;;;;;;5047016;28;20254;-52
2023/04/14 02:53:04;;;;;;;4.27;3.70;;;;;;;;;;5051941;28;20710;-51
2023/04/14 02:55:31;;;;;;;4.30;3.90;;;;;;;;;;5046694;28;20242;-51
2023/04/14 02:57:59;;;;;;;5.43;3.63;;;;;;;;;;5049690;28;20885;-54
2023/04/14 03:00:26;;;;;;;4.53;3.67;;;;;;;;;;5049071;28;20749;-51
2023/04/14 03:02:53;;;;;;;4.10;3.70;;;;;;;;;;5056510;28;20256;-51
2023/04/14 03:05:21;;;;;;;3.70;3.43;;;;;;;;;;5055374;28;20237;-50
2023/04/14 03:07:48;;;;;;;5.03;4.03;;;;;;;;;;5044914;28;20624;-51
2023/04/14 03:10:15;;;;;;;5.30;3.87;;;;;;;;;;5037911;28;20232;-55
2023/04/14 03:12:42;;;;;;;3.60;3.30;;;;;;;;;;5051046;28;20234;-51
2023/04/14 03:15:11;;;;;;;4.30;3.63;;;;;;;;;;5054049;28;20991;-51
2023/04/14 03:17:37;;;;;;;4.77;3.40;;;;;;;;;;5036246;28;20329;-51
2023/04/14 03:20:05;;;;;;;5.60;3.47;;;;;;;;;;5056742;28;20587;-51
2023/04/14 03:22:35;;;;;;;5.43;3.60;;;;;;;;;;5046343;28;20258;-51
2023/04/14 03:25:01;;;;;;;3.97;3.67;;;;;;;;;;5050651;28;20230;-50
2023/04/14 03:27:30;;;;;;;5.53;3.67;;;;;;;;;;5044770;28;20238;-52
2023/04/14 03:30:02;;;;;;;6.07;4.43;;;;;;;;;;5039564;28;20232;-53
2023/04/14 03:32:33;;;;;;;5.10;3.40;;;;;;;;;;5037758;28;20232;-53
2023/04/14 03:35:00;;;;;;;4.10;3.47;;;;;;;;;;5045390;28;20725;-51
2023/04/14 03:37:28;;;;;;;3.90;3.57;;;;;;;;;;5050046;28;20235;-52
2023/04/14 03:39:58;;;;;;;5.30;3.83;;;;;;;;;;5039896;28;20254;-51
2023/04/14 03:42:26;;;;;;;4.93;4.17;;;;;;;;;;5043493;28;20227;-50
2023/04/14 03:44:59;;;;;;;6.67;4.23;;;;;;;;;;5036963;28;20229;-52
2023/04/14 03:47:29;;;;;;;4.70;3.37;;;;;;;;;;5032181;28;20288;-51
2023/04/14 03:50:00;;;;;;;5.17;3.73;;;;;;;;;;5043717;28;20238;-51
2023/04/14 03:52:28;;;;;;;5.13;4.30;;;;;;;;;;5051689;28;20240;-51
2023/04/14 03:54:57;;;;;;;4.20;3.67;;;;;;;;;;5059286;28;20322;-51
2023/04/14 03:57:25;;;;;;;5.67;4.37;;;;;;;;;;5059308;28;20231;-51
2023/04/14 03:59:53;;;;;;;4.63;4.23;;;;;;;;;;5054260;28;20241;-55
2023/04/14 04:02:21;;;;;;;4.30;3.77;;;;;;;;;;5047798;28;20231;-50
2023/04/14 04:04:48;;;;;;;4.80;4.30;;;;;;;;;;5054138;28;20235;-51
2023/04/14 04:07:17;;;;;;;3.93;3.60;;;;;;;;;;5050786;28;20319;-51
2023/04/14 04:09:46;;;;;;;5.80;4.70;;;;;;;;;;5060499;28;20231;-49
2023/04/14 04:12:13;;;;;;;7.47;3.97;;;;;;;;;;5064522;28;20239;-50
2023/04/14 04:14:40;;;;;;;5.57;4.70;;;;;;;;;;5053559;28;20228;-50
2023/04/14 04:17:07;;;;;;;6.57;4.50;;;;;;;;;;5049434;28;20255;-51
2023/04/14 04:19:35;;;;;;;6.30;4.00;;;;;;;;;;5062746;28;20327;-52
2023/04/14 04:22:03;;;;;;;6.27;4.43;;;;;;;;;;5040791;28;20232;-51
2023/04/14 04:24:33;;;;;;;5.97;4.30;;;;;;;;;;5038586;28;22080;-51
2023/04/14 04:27:00;;;;;;;6.80;4.37;;;;;;;;;;5041595;28;20247;-51
2023/04/14 04:29:27;;;;;;;5.03;4.40;;;;;;;;;;5045715;28;20339;-50
2023/04/14 04:31:53;;;;;;;4.57;4.17;;;;;;;;;;5043865;28;20254;-53
2023/04/14 04:34:22;;;;;;;5.00;4.60;;;;;;;;;;5043593;28;20264;-54
2023/04/14 04:36:50;;;;;;;3.77;3.40;;;;;;;;;;5045789;28;20297;-51
2023/04/14 04:39:16;;;;;;;6.03;4.33;;;;;;;;;;5049616;28;20227;-51
2023/04/14 04:41:45;;;;;;;4.63;4.10;;;;;;;;;;5042902;28;20235;-50
2023/04/14 04:44:12;;;;;;;5.53;5.03;;;;;;;;;;5041724;28;20274;-50
2023/04/14 04:46:48;;;;;;;7.17;5.10;;;;;;;;;;5049524;28;20224;-51
2023/04/14 04:49:15;;;;;;;6.73;4.70;;;;;;;;;;5052953;28;20219;-51
2023/04/14 04:51:41;;;;;;;5.17;4.40;;;;;;;;;;5043683;28;20239;-51
2023/04/14 04:54:08;;;;;;;6.17;4.93;;;;;;;;;;5052824;28;20235;-51
2023/04/14 04:56:35;;;;;;;9.27;4.83;;;;;;;;;;5049455;28;20227;-49
2023/04/14 04:59:03;;;;;;;7.77;5.13;;;;;;;;;;5048593;28;20298;-50
2023/04/14 05:01:30;;;;;;;5.63;4.57;;;;;;;;;;5050359;28;20343;-50
2023/04/14 05:03:56;;;;;;;5.77;4.80;;;;;;;;;;5059252;28;20255;-51
2023/04/14 05:06:23;;;;;;;6.13;4.50;;;;;;;;;;5053218;28;20244;-51
2023/04/14 05:08:51;;;;;;;5.83;4.33;;;;;;;;;;5052861;28;20244;-51
2023/04/14 05:11:18;;;;;;;5.87;3.90;;;;;;;;;;5050238;28;21004;-50
2023/04/14 05:13:44;;;;;;;4.67;4.20;;;;;;;;;;5048145;28;20228;-49
2023/04/14 05:16:13;;;;;;;5.07;4.67;;;;;;;;;;5047661;28;20235;-50
2023/04/14 05:18:40;;;;;;;8.83;4.27;;;;;;;;;;5053065;28;20255;-51
2023/04/14 05:21:08;;;;;;;5.43;4.13;;;;;;;;;;5060142;28;20776;-49
2023/04/14 05:23:35;;;;;;;5.60;4.40;;;;;;;;;;5061014;28;20231;-51
2023/04/14 05:26:02;;;;;;;5.33;4.63;;;;;;;;;;5058184;28;20528;-50
2023/04/14 05:28:30;;;;;;;5.53;4.57;;;;;;;;;;5053938;28;20239;-50
2023/04/14 05:30:56;;;;;;;6.27;4.03;;;;;;;;;;5054140;28;20255;-51
2023/04/14 05:33:24;;;;;;;6.80;5.10;;;;;;;;;;5047685;28;20227;-51
2023/04/14 05:35:52;;;;;;;5.80;5.30;;;;;;;;;;5040289;28;20285;-51
2023/04/14 05:38:19;;;;;;;6.07;5.27;;;;;;;;;;5048088;28;20247;-51
2023/04/14 05:40:46;;;;;;;7.53;4.23;;;;;;;;;;5024536;28;20248;-52
2023/04/14 05:43:13;;;;;;;5.63;5.10;;;;;;;;;;5024953;28;20291;-52
2023/04/14 05:45:39;;;;;;;8.50;4.90;;;;;;;;;;5026554;28;20232;-50
2023/04/14 05:48:06;;;;;;;5.03;4.10;;;;;;;;;;5026001;28;20290;-49
2023/04/14 05:50:36;;;;;;;9.27;4.57;;;;;;;;;;5026647;28;20232;-52
2023/04/14 05:53:03;;;;;;;7.27;5.10;;;;;;;;;;5044744;28;20250;-51
2023/04/14 05:55:29;;;;;;;7.20;5.37;;;;;;;;;;5036121;28;20232;-50
2023/04/14 05:57:56;;;;;;;6.00;4.90;;;;;;;;;;5033202;28;20290;-51
2023/04/14 06:00:24;;;;;;;5.93;4.80;;;;;;;;;;5027964;28;20235;-51
2023/04/14 06:02:51;;;;;;;4.33;3.93;;;;;;;;;;5034881;28;20237;-51
2023/04/14 06:05:18;;;;;;;4.33;3.90;;;;;;;;;;5033636;28;20246;-51
2023/04/14 06:07:46;;;;;;;5.23;4.73;;;;;;;;;;5034161;28;20259;-51
2023/04/14 06:10:12;;;;;;;7.33;4.90;;;;;;;;;;5040521;28;20380;-51
2023/04/14 06:12:39;;;;;;;5.83;4.53;;;;;;;;;;5037728;28;20238;-52
2023/04/14 06:15:06;;;;;;;6.37;4.47;;;;;;;;;;5040405;28;20325;-51
2023/04/14 06:17:33;;;;;;;5.13;4.63;;;;;;;;;;5041373;28;20247;-51
2023/04/14 06:20:01;;;;;;;4.87;4.37;;;;;;;;;;5042707;28;20285;-51
2023/04/14 06:22:28;;;;;;;6.50;4.97;;;;;;;;;;5040869;28;20242;-50
2023/04/14 06:24:57;;;;;;;4.53;4.13;;;;;;;;;;5039967;28;20243;-51
2023/04/14 06:27:24;;;;;;;5.70;5.03;;;;;;;;;;5041226;28;20232;-52
2023/04/14 06:29:51;;;;;;;7.80;4.67;;;;;;;;;;5042317;28;20762;-50
2023/04/14 06:32:18;;;;;;;6.80;4.73;;;;;;;;;;5044279;28;20264;-50
2023/04/14 06:34:46;;;;;;;5.97;4.60;;;;;;;;;;5041501;28;20237;-52
2023/04/14 06:37:13;;;;;;;7.43;5.63;;;;;;;;;;5034452;28;20240;-52
2023/04/14 06:39:39;;;;;;;7.47;5.37;;;;;;;;;;5034786;28;20306;-51
2023/04/14 06:42:11;;;;;;;6.53;4.40;;;;;;;;;;5036515;28;20319;-52
2023/04/14 06:44:38;;;;;;;6.73;5.20;;;;;;;;;;5046517;28;20236;-52
2023/04/14 06:47:04;;;;;;;5.37;4.37;;;;;;;;;;5033097;28;20355;-51
2023/04/14 06:49:31;;;;;;;5.60;5.00;;;;;;;;;;5039757;28;20331;-53
2023/04/14 06:51:57;;;;;;;5.37;4.20;;;;;;;;;;5032940;28;20353;-52
2023/04/14 06:54:24;;;;;;;5.63;5.00;;;;;;;;;;5036920;28;20229;-53
2023/04/14 06:56:51;;;;;;;4.83;4.43;;;;;;;;;;5034247;28;20293;-52
2023/04/14 06:59:21;;;;;;;5.77;4.23;;;;;;;;;;5032367;28;23299;-51
2023/04/14 07:01:48;;;;;;;6.13;4.23;;;;;;;;;;5038228;28;20240;-52
2023/04/14 07:04:15;;;;;;;7.83;4.60;;;;;;;;;;5035402;28;20258;-52
2023/04/14 07:06:41;;;;;;;4.40;3.97;;;;;;;;;;5035776;28;20232;-51
2023/04/14 07:09:08;;;;;;;8.47;4.17;;;;;;;;;;5033659;28;20240;-52
2023/04/14 07:11:34;;;;;;;5.47;4.93;;;;;;;;;;5037918;28;20286;-52
2023/04/14 07:14:01;;;;;;;5.53;4.90;;;;;;;;;;5045816;28;20741;-52
2023/04/14 07:16:32;;;;;;;5.87;5.37;;;;;;;;;;5044527;28;20289;-50
2023/04/14 07:18:58;;;;;;;7.27;5.40;;;;;;;;;;5032192;28;20229;-52
2023/04/14 07:21:26;;;;;;;5.87;5.33;;;;;;;;;;5038655;28;20236;-51
2023/04/14 07:23:52;;;;;;;5.83;5.10;;;;;;;;;;5042869;28;20224;-52
2023/04/14 07:26:19;;;;;;;6.00;5.50;;;;;;;;;;5035393;28;20233;-52
2023/04/14 07:28:46;;;;;;;5.20;4.80;;;;;;;;;;5038112;28;20227;-52
2023/04/14 07:31:13;;;;;;;8.87;5.20;;;;;;;;;;5041414;28;20240;-51
2023/04/14 07:33:41;;;;;;;6.53;5.47;;;;;;;;;;5031845;28;20475;-52
2023/04/14 07:36:08;;;;;;;5.50;4.97;;;;;;;;;;5039537;28;20287;-51
2023/04/14 07:38:35;;;;;;;6.13;5.53;;;;;;;;;;5027628;28;20284;-53
2023/04/14 07:41:03;;;;;;;6.67;5.97;;;;;;;;;;5047879;28;20665;-51
2023/04/14 07:43:33;;;;;;;7.13;6.43;;;;;;;;;;5039748;28;20228;-50
2023/04/14 07:46:03;;;;;;;8.30;6.10;;;;;;;;;;5041044;28;20228;-51
2023/04/14 07:48:29;;;;;;;5.93;5.40;;;;;;;;;;5040380;28;20240;-52
2023/04/14 07:50:57;;;;;;;6.87;6.07;;;;;;;;;;5036574;28;20232;-52
2023/04/14 07:53:24;;;;;;;5.50;5.00;;;;;;;;;;5036026;28;20738;-52
2023/04/14 07:55:51;;;;;;;7.10;5.27;;;;;;;;;;5032087;28;20242;-52
2023/04/14 07:58:17;;;;;;;5.93;5.30;;;;;;;;;;5035853;28;20223;-51
2023/04/14 08:00:44;;;;;;;5.70;4.93;;;;;;;;;;5035113;28;20224;-52
2023/04/14 08:03:12;;;;;;;6.17;4.33;;;;;;;;;;5036729;28;20239;-52
2023/04/14 08:05:38;;;;;;;6.17;4.40;;;;;;;;;;5042488;28;20612;-52
2023/04/14 08:08:06;;;;;;;5.47;4.90;;;;;;;;;;5035481;28;20352;-53
2023/04/14 08:10:33;;;;;;;6.33;5.00;;;;;;;;;;5041989;28;20237;-52
2023/04/14 08:12:59;;;;;;;6.73;4.27;;;;;;;;;;5042494;28;20265;-51
2023/04/14 08:15:26;;;;;;;6.13;4.67;;;;;;;;;;5043061;28;20247;-52
2023/04/14 08:17:53;;;;;;;6.40;4.07;;;;;;;;;;5043259;28;20249;-50
2023/04/14 08:20:20;;;;;;;5.83;3.90;;;;;;;;;;5043497;28;20240;-52
2023/04/14 08:22:47;;;;;;;6.90;4.87;;;;;;;;;;5034930;28;20758;-52
2023/04/14 08:25:15;;;;;;;5.17;3.67;;;;;;;;;;5027637;28;20239;-52
2023/04/14 08:27:42;;;;;;;4.70;4.20;;;;;;;;;;5033212;28;20259;-51
2023/04/14 08:30:09;;;;;;;4.20;3.90;;;;;;;;;;5041987;28;20846;-51
2023/04/14 08:32:36;;;;;;;4.70;3.80;;;;;;;;;;5039599;28;20386;-51
2023/04/14 08:35:02;;;;;;;4.77;4.00;;;;;;;;;;5041913;28;20732;-51
2023/04/14 08:37:28;;;;;;;4.40;4.00;;;;;;;;;;5046515;28;20243;-53
2023/04/14 08:39:55;;;;;;;6.20;4.40;;;;;;;;;;5052847;28;20653;-50
2023/04/14 08:42:23;;;;;;;4.57;4.13;;;;;;;;;;5052553;28;20236;-52
2023/04/14 08:44:51;;;;;;;4.47;4.17;;;;;;;;;;5057415;28;20285;-52
2023/04/14 08:47:18;;;;;;;5.30;4.20;;;;;;;;;;5043436;28;20355;-52
2023/04/14 08:49:46;;;;;;;6.40;5.10;;;;;;;;;;5036417;28;20223;-51
2023/04/14 08:52:13;;;;;;;4.77;4.37;;;;;;;;;;5054660;28;20326;-57
2023/04/14 08:54:39;;;;;;;5.30;4.23;;;;;;;;;;5052461;28;20795;-52
2023/04/14 08:57:07;;;;;;;4.93;4.50;;;;;;;;;;5054085;28;20607;-52
2023/04/14 08:59:35;;;;;;;7.27;3.67;;;;;;;;;;5045324;28;20238;-52
2023/04/14 09:02:04;;;;;;;5.10;4.53;;;;;;;;;;5033260;28;20240;-53
2023/04/14 09:04:31;;;;;;;5.37;4.17;;;;;;;;;;5048856;28;20257;-55
2023/04/14 09:06:58;;;;;;;5.37;4.10;;;;;;;;;;5046749;28;20710;-53
2023/04/14 09:09:25;;;;;;;5.17;4.20;;;;;;;;;;5053623;28;20231;-52
2023/04/14 09:11:52;;;;;;;5.63;3.93;;;;;;;;;;5043976;28;20311;-51
2023/04/14 09:14:19;;;;;;;4.73;4.20;;;;;;;;;;5045721;28;20358;-52
2023/04/14 09:16:50;;;;;;;5.40;3.70;;;;;;;;;;5040884;28;20230;-53
2023/04/14 09:19:16;;;;;;;5.27;4.57;;;;;;;;;;5045242;28;20340;-52
2023/04/14 09:21:43;;;;;;;5.70;4.63;;;;;;;;;;5045571;28;20319;-53
2023/04/14 09:24:09;;;;;;;4.20;3.80;;;;;;;;;;5053002;28;20238;-53
2023/04/14 09:26:36;;;;;;;5.30;4.30;;;;;;;;;;5047630;28;20234;-53
2023/04/14 09:29:03;;;;;;;5.63;4.37;;;;;;;;;;5045455;28;20248;-52
2023/04/14 09:31:29;;;;;;;4.93;4.43;;;;;;;;;;5047942;28;20713;-54
2023/04/14 09:33:57;;;;;;;5.67;4.43;;;;;;;;;;5040577;28;20647;-52
2023/04/14 09:36:24;;;;;;;5.73;4.73;;;;;;;;;;5046700;28;20232;-53
2023/04/14 09:38:51;;;;;;;5.07;4.43;;;;;;;;;;5043215;28;20240;-53
2023/04/14 09:41:18;;;;;;;5.47;4.60;;;;;;;;;;5042731;28;20232;-52
2023/04/14 09:43:44;;;;;;;4.50;4.07;;;;;;;;;;5046747;28;20231;-52
2023/04/14 09:46:11;;;;;;;4.47;4.07;;;;;;;;;;5036929;28;20312;-52
2023/04/14 09:48:49;;;;;;;7.17;4.57;;;;;;;;;;5034283;28;20260;-52
2023/04/14 09:51:17;;;;;;;4.57;3.80;;;;;;;;;;5034589;28;20232;-52
2023/04/14 09:53:44;;;;;;;6.13;4.60;;;;;;;;;;5038768;28;20885;-52
2023/04/14 09:56:12;;;;;;;5.90;4.40;;;;;;;;;;5025677;28;20307;-52
2023/04/14 09:58:39;;;;;;;5.40;4.90;;;;;;;;;;5043800;28;20738;-52
2023/04/14 10:01:10;;;;;;;4.67;4.07;;;;;;;;;;5055125;28;20273;-53
2023/04/14 10:03:38;;;;;;;5.47;4.97;;;;;;;;;;5045763;28;20306;-53
2023/04/14 10:06:08;;;;;;;5.27;4.63;;;;;;;;;;5045945;28;20228;-53
2023/04/14 10:08:37;;;;;;;5.00;4.50;;;;;;;;;;5045776;28;20238;-53
2023/04/14 10:11:16;;;;;;;8.33;5.30;;;;;;;;;;5041828;28;20235;-52
2023/04/14 10:13:43;;;;;;;5.87;4.83;;;;;;;;;;5052949;28;20231;-54
2023/04/14 10:16:09;;;;;;;5.20;4.70;;;;;;;;;;5044028;28;20227;-53
2023/04/14 10:18:36;;;;;;;4.80;4.27;;;;;;;;;;5031676;28;20237;-52
2023/04/14 10:21:03;;;;;;;6.47;5.50;;;;;;;;;;5055348;28;20228;-53
2023/04/14 10:23:30;;;;;;;5.00;4.50;;;;;;;;;;5047532;28;20231;-52
2023/04/14 10:25:58;;;;;;;6.30;5.70;;;;;;;;;;5034768;28;20278;-52
2023/04/14 10:28:25;;;;;;;5.00;4.47;;;;;;;;;;5040300;28;20229;-52
2023/04/14 10:30:52;;;;;;;5.33;4.30;;;;;;;;;;5041782;28;20227;-52
2023/04/14 10:33:19;;;;;;;5.33;4.83;;;;;;;;;;5044636;28;21960;-52
2023/04/14 10:35:47;;;;;;;7.70;4.50;;;;;;;;;;5049616;28;20254;-52
2023/04/14 10:38:14;;;;;;;5.40;4.90;;;;;;;;;;5032738;28;20262;-52
2023/04/14 10:40:47;;;;;;;9.70;4.63;;;;;;;;;;5039195;28;20267;-52
2023/04/14 10:43:15;;;;;;;5.53;4.80;;;;;;;;;;5047838;28;20306;-52
2023/04/14 10:45:53;;;;;;;4.87;4.37;;;;;;;;;;5036429;28;20252;-53
2023/04/14 10:48:19;;;;;;;4.70;4.30;;;;;;;;;;5033023;28;20824;-52
2023/04/14 10:50:46;;;;;;;6.10;5.50;;;;;;;;;;5042550;28;20467;-52
2023/04/14 10:53:12;;;;;;;5.77;5.20;;;;;;;;;;5051292;28;20227;-51
2023/04/14 10:55:45;;;;;;;4.93;4.40;;;;;;;;;;5047725;28;20240;-52
2023/04/14 10:58:17;;;;;;;5.20;4.53;;;;;;;;;;5045587;28;20705;-51
2023/04/14 11:00:45;;;;;;;5.17;4.23;;;;;;;;;;5042463;28;20232;-52
2023/04/14 11:03:12;;;;;;;5.20;4.57;;;;;;;;;;5053990;28;20231;-52
2023/04/14 11:05:42;;;;;;;4.83;4.43;;;;;;;;;;5045852;28;20259;-52
2023/04/14 11:08:12;;;;;;;7.23;5.50;;;;;;;;;;5038790;28;20270;-52
2023/04/14 11:10:39;;;;;;;6.53;5.87;;;;;;;;;;5042424;28;20228;-51
2023/04/14 11:13:06;;;;;;;7.23;5.00;;;;;;;;;;5046098;28;20357;-52
2023/04/14 11:15:50;;;;;;;8.00;5.80;;;;;;;;;;5035632;28;20713;-52
2023/04/14 11:18:17;;;;;;;7.33;5.30;;;;;;;;;;5034371;28;20772;-53
2023/04/14 11:20:44;;;;;;;7.37;5.27;;;;;;;;;;5036127;28;20232;-53
2023/04/14 11:23:12;;;;;;;6.43;5.30;;;;;;;;;;5043193;28;20244;-53
2023/04/14 11:25:39;;;;;;;5.80;5.20;;;;;;;;;;5040958;28;20247;-53
2023/04/14 11:28:06;;;;;;;5.73;5.23;;;;;;;;;;5041602;28;20239;-53
2023/04/14 11:30:33;;;;;;;6.00;4.83;;;;;;;;;;5042251;28;20227;-53
2023/04/14 11:33:01;;;;;;;6.13;4.90;;;;;;;;;;5043425;28;20239;-53
2023/04/14 11:35:28;;;;;;;8.13;4.90;;;;;;;;;;5048511;28;20595;-53
2023/04/14 11:37:55;;;;;;;5.40;4.90;;;;;;;;;;5028848;28;20268;-53
2023/04/14 11:40:22;;;;;;;4.60;4.20;;;;;;;;;;5036094;28;20227;-53
2023/04/14 11:42:52;;;;;;;4.73;4.33;;;;;;;;;;5040256;28;20228;-54
2023/04/14 11:45:18;;;;;;;5.23;4.40;;;;;;;;;;5042066;28;20281;-53
2023/04/14 11:47:56;;;;;;;5.37;4.87;;;;;;;;;;5044534;28;20886;-54
2023/04/14 11:50:24;;;;;;;4.93;4.40;;;;;;;;;;5044303;28;20227;-54
2023/04/14 11:52:51;;;;;;;5.00;4.50;;;;;;;;;;5038935;28;20694;-54
2023/04/14 11:55:17;;;;;;;8.50;4.37;;;;;;;;;;5039252;28;20266;-54
2023/04/14 11:57:45;;;;;;;5.40;4.23;;;;;;;;;;5048615;28;20244;-55
2023/04/14 12:00:12;;;;;;;4.77;4.30;;;;;;;;;;5035541;28;20227;-55
2023/04/14 12:02:42;;;;;;;5.73;4.77;;;;;;;;;;5036645;28;20235;-56
2023/04/14 12:05:09;;;;;;;4.93;4.33;;;;;;;;;;5039873;28;21087;-56
2023/04/14 12:07:38;;;;;;;6.20;4.50;;;;;;;;;;5041193;28;20255;-57
2023/04/14 12:10:06;;;;;;;5.57;4.63;;;;;;;;;;5035169;28;20684;-58
2023/04/14 12:12:32;;;;;;;6.27;4.70;;;;;;;;;;5040052;28;20314;-56
2023/04/14 12:14:59;;;;;;;4.50;4.10;;;;;;;;;;5041707;28;20242;-58
2023/04/14 12:17:26;;;;;;;4.87;4.00;;;;;;;;;;5040723;28;20236;-58
2023/04/14 12:19:52;;;;;;;4.73;4.23;;;;;;;;;;5035136;28;20348;-60
2023/04/14 12:22:23;;;;;;;5.50;4.17;;;;;;;;;;5042213;28;20234;-59
2023/04/14 12:24:50;;;;;;;5.13;4.63;;;;;;;;;;5048489;28;20224;-61
2023/04/14 12:27:18;;;;;;;4.70;4.30;;;;;;;;;;5034759;28;20724;-60
2023/04/14 12:29:46;;;;;;;4.63;4.23;;;;;;;;;;5042407;28;20320;-59
2023/04/14 12:32:12;;;;;;;9.80;4.80;;;;;;;;;;5045551;28;20318;-59
2023/04/14 12:34:39;;;;;;;7.90;5.23;;;;;;;;;;5052382;28;20223;-60
2023/04/14 12:37:09;;;;;;;4.67;4.27;;;;;;;;;;5051361;28;20322;-60
2023/04/14 12:39:49;;;;;;;5.53;4.73;;;;;;;;;;5049378;28;20232;-60
2023/04/14 12:42:17;;;;;;;5.00;4.50;;;;;;;;;;5048790;28;20235;-60
2023/04/14 12:44:53;;;;;;;6.00;5.43;;;;;;;;;;5054587;28;20228;-59
2023/04/14 12:47:26;;;;;;;5.90;5.37;;;;;;;;;;5035062;28;20244;-61
2023/04/14 12:49:53;;;;;;;6.37;5.17;;;;;;;;;;5048983;28;20470;-64
2023/04/14 12:52:32;;;;;;;6.67;5.93;;;;;;;;;;5037345;28;20248;-61
2023/04/14 12:54:58;;;;;;;6.37;5.77;;;;;;;;;;5039092;28;20286;-60
2023/04/14 12:57:26;;;;;;;5.47;4.97;;;;;;;;;;5041483;28;20319;-62
2023/04/14 12:59:52;;;;;;;6.30;5.67;;;;;;;;;;5042372;28;20236;-62
2023/04/14 13:02:18;;;;;;;6.60;5.30;;;;;;;;;;5049330;28;20248;-63
2023/04/14 13:04:45;;;;;;;8.40;6.10;;;;;;;;;;5049303;28;20228;-59
2023/04/14 13:07:11;;;;;;;6.27;5.20;;;;;;;;;;5051599;28;20232;-61
2023/04/14 13:09:38;;;;;;;5.73;5.23;;;;;;;;;;5055842;28;20327;-61
2023/04/14 13:12:04;;;;;;;5.43;4.73;;;;;;;;;;5042559;28;20327;-61
2023/04/14 13:14:32;;;;;;;9.17;5.80;;;;;;;;;;5050212;28;20261;-63
2023/04/14 13:16:58;;;;;;;6.00;5.43;;;;;;;;;;5038906;28;20303;-62
2023/04/14 13:19:25;;;;;;;7.37;5.67;;;;;;;;;;5043668;28;20233;-63
2023/04/14 13:21:51;;;;;;;5.97;5.43;;;;;;;;;;5042397;28;20236;-61
2023/04/14 13:24:18;;;;;;;6.03;5.50;;;;;;;;;;5042024;28;20740;-61
2023/04/14 13:26:45;;;;;;;6.87;5.90;;;;;;;;;;5049496;28;20235;-61
2023/04/14 13:29:12;;;;;;;6.57;5.00;;;;;;;;;;5037352;28;20234;-62
2023/04/14 13:31:39;;;;;;;7.70;4.90;;;;;;;;;;5040239;28;20239;-62
2023/04/14 13:34:06;;;;;;;7.23;6.23;;;;;;;;;;5044142;28;20607;-61
2023/04/14 13:36:32;;;;;;;7.63;5.87;;;;;;;;;;5043275;28;20239;-62
2023/04/14 13:38:59;;;;;;;7.17;5.43;;;;;;;;;;5039849;28;20243;-62
2023/04/14 13:41:25;;;;;;;6.77;6.10;;;;;;;;;;5041043;28;20331;-61
2023/04/14 13:43:52;;;;;;;6.67;5.70;;;;;;;;;;5045345;28;20311;-60
2023/04/14 13:46:18;;;;;;;6.73;4.97;;;;;;;;;;5050950;28;20238;-60
2023/04/14 13:48:46;;;;;;;6.10;5.00;;;;;;;;;;5050467;28;20243;-60
2023/04/14 13:51:12;;;;;;;10.17;5.50;;;;;;;;;;5044015;28;20232;-60
2023/04/14 13:53:39;;;;;;;7.17;5.80;;;;;;;;;;5048662;28;20235;-59
2023/04/14 13:56:05;;;;;;;6.13;5.53;;;;;;;;;;5039064;28;20238;-60
2023/04/14 13:58:32;;;;;;;6.47;5.20;;;;;;;;;;5039414;28;20224;-59
2023/04/14 14:00:58;;;;;;;5.77;5.17;;;;;;;;;;5051059;28;20741;-60
2023/04/14 14:03:25;;;;;;;6.27;5.67;;;;;;;;;;5044087;28;20314;-60
2023/04/14 14:05:52;;;;;;;6.50;5.60;;;;;;;;;;5045747;28;20624;-59
2023/04/14 14:08:19;;;;;;;5.83;5.33;;;;;;;;;;5039283;28;20238;-60
2023/04/14 14:10:45;;;;;;;5.80;5.27;;;;;;;;;;5049752;28;20235;-59
2023/04/14 14:13:12;;;;;;;5.40;4.83;;;;;;;;;;5041327;28;20271;-58
2023/04/14 14:15:39;;;;;;;5.73;5.13;;;;;;;;;;5041440;28;20258;-59
2023/04/14 14:18:05;;;;;;;6.33;5.13;;;;;;;;;;5041589;28;20246;-61
2023/04/14 14:20:32;;;;;;;5.37;4.87;;;;;;;;;;5040731;28;20235;-61
2023/04/14 14:23:00;;;;;;;7.27;6.03;;;;;;;;;;5044007;28;20258;-59
2023/04/14 14:25:27;;;;;;;5.53;4.93;;;;;;;;;;5035279;28;20232;-57
2023/04/14 14:27:54;;;;;;;5.70;5.17;;;;;;;;;;5035409;28;20792;-60
2023/04/14 14:30:21;;;;;;;5.03;4.33;;;;;;;;;;5045891;28;20239;-59
2023/04/14 14:32:47;;;;;;;5.20;4.70;;;;;;;;;;5035734;28;20277;-58
2023/04/14 14:35:15;;;;;;;5.70;4.80;;;;;;;;;;5045806;28;20239;-57
2023/04/14 14:37:43;;;;;;;5.73;5.13;;;;;;;;;;5040866;28;20232;-57
2023/04/14 14:40:15;;;;;;;6.77;5.70;;;;;;;;;;5044798;28;20319;-58
2023/04/14 14:42:42;;;;;;;5.97;5.37;;;;;;;;;;5037004;28;20232;-57
2023/04/14 14:45:09;;;;;;;6.20;5.60;;;;;;;;;;5045927;28;20722;-57